Time;durP1;ratioP1;P1;durP2;ratioP2;P2;SDS_P1;SDS_P2;PMS_P1;PMS_P2;Temp;Humidity;BMP_temperature;BMP_pressure;BME280_temperature;BME280_humidity;BME280_pressure;Samples;Min_cycle;Max_cycle;Signal;HPM_P1;HPM_P2
2021/09/29 00:01:34;;;;;;;7.70;5.15;;;15.20;73.70;;;;;;5016986;28;20177;-90
2021/09/29 00:03:59;;;;;;;7.70;4.93;;;15.20;73.60;;;;;;5015508;28;20197;-91
2021/09/29 00:06:25;;;;;;;9.37;4.47;;;15.30;73.70;;;;;;5015936;28;20205;-91
2021/09/29 00:08:51;;;;;;;9.70;4.87;;;15.20;73.50;;;;;;5015179;28;20185;-91
2021/09/29 00:11:17;;;;;;;6.87;5.50;;;15.10;73.70;;;;;;5015243;28;20261;-91
2021/09/29 00:13:42;;;;;;;8.43;4.50;;;15.00;74.30;;;;;;5015913;28;20194;-92
2021/09/29 00:16:08;;;;;;;11.20;5.40;;;14.90;74.70;;;;;;5015696;28;20177;-92
2021/09/29 00:18:34;;;;;;;4.83;4.33;;;15.00;74.70;;;;;;5016886;28;20178;-91
2021/09/29 00:20:59;;;;;;;8.40;4.50;;;15.10;74.70;;;;;;5015506;28;20628;-92
2021/09/29 00:23:25;;;;;;;7.60;4.27;;;15.10;74.20;;;;;;5032533;28;20200;-92
2021/09/29 00:25:51;;;;;;;6.93;4.97;;;15.10;74.50;;;;;;5034311;28;20237;-92
2021/09/29 00:28:16;;;;;;;9.00;4.77;;;15.10;74.40;;;;;;4999361;28;20637;-91
2021/09/29 00:31:02;;;;;;;9.93;6.63;;;15.10;74.50;;;;;;5015879;28;20174;-92
2021/09/29 00:33:29;;;;;;;6.30;4.30;;;15.10;74.50;;;;;;5015118;28;20702;-91
2021/09/29 00:35:55;;;;;;;8.00;4.78;;;15.00;74.60;;;;;;5010210;28;20550;-92
2021/09/29 00:38:20;;;;;;;10.10;4.73;;;15.00;74.80;;;;;;4996799;28;20193;-91
2021/09/29 00:40:48;;;;;;;5.70;4.07;;;15.10;75.00;;;;;;4995602;28;20179;-92
2021/09/29 00:43:14;;;;;;;12.35;4.43;;;15.20;74.80;;;;;;4995956;28;20222;-92
2021/09/29 00:45:41;;;;;;;5.45;4.15;;;15.20;74.60;;;;;;5011905;28;20202;-92
2021/09/29 00:48:06;;;;;;;7.00;4.78;;;15.20;74.70;;;;;;5015473;28;20614;-92
2021/09/29 00:50:34;;;;;;;6.53;4.50;;;15.40;74.40;;;;;;5001166;28;20300;-91
2021/09/29 00:53:00;;;;;;;11.18;5.88;;;15.20;74.10;;;;;;5015278;28;20232;-92
2021/09/29 00:55:26;;;;;;;9.85;5.53;;;15.30;74.40;;;;;;5033195;28;20193;-92
2021/09/29 00:57:52;;;;;;;6.67;5.07;;;15.40;74.30;;;;;;5015418;28;20181;-92
2021/09/29 01:00:18;;;;;;;6.23;4.30;;;15.50;74.10;;;;;;5015174;28;20645;-92
2021/09/29 01:02:44;;;;;;;6.93;4.50;;;15.60;74.40;;;;;;5015717;28;20451;-92
2021/09/29 01:05:11;;;;;;;6.40;4.60;;;15.40;73.40;;;;;;5015070;28;20202;-92
2021/09/29 01:07:59;;;;;;;8.75;5.22;;;15.50;73.70;;;;;;5015120;28;20543;-92
2021/09/29 01:10:48;;;;;;;8.30;4.85;;;15.50;73.70;;;;;;5016222;28;20621;-92
2021/09/29 01:13:29;;;;;;;5.75;4.38;;;15.40;74.00;;;;;;5015035;28;20546;-92
2021/09/29 01:16:46;;;;;;;10.00;5.68;;;15.30;74.70;;;;;;5016340;28;20176;-92
2021/09/29 01:19:42;;;;;;;9.35;4.53;;;15.30;74.80;;;;;;5015401;28;20182;-91
2021/09/29 01:22:43;;;;;;;12.65;5.72;;;15.40;74.40;;;;;;5021195;28;20204;-92
2021/09/29 01:25:21;;;;;;;8.38;4.30;;;15.40;74.20;;;;;;4979947;28;20622;-92
2021/09/29 01:27:48;;;;;;;14.10;4.93;;;15.30;74.30;;;;;;5036809;28;20172;-91
2021/09/29 01:30:14;;;;;;;6.82;4.28;;;15.30;74.60;;;;;;5018547;28;20213;-91
2021/09/29 01:32:40;;;;;;;6.30;4.00;;;15.40;74.50;;;;;;5017874;28;20248;-91
2021/09/29 01:35:07;;;;;;;6.97;4.05;;;15.30;74.50;;;;;;5022681;28;20573;-91
2021/09/29 01:37:33;;;;;;;7.10;3.88;;;15.30;74.50;;;;;;5003735;28;20206;-92
2021/09/29 01:39:59;;;;;;;7.30;4.70;;;15.30;74.50;;;;;;5011985;28;20181;-91
2021/09/29 01:42:25;;;;;;;10.40;4.68;;;15.30;74.40;;;;;;5020152;28;20473;-92
2021/09/29 01:44:50;;;;;;;11.40;3.87;;;15.40;74.30;;;;;;5017821;28;20205;-92
2021/09/29 01:47:16;;;;;;;5.97;4.33;;;15.40;73.90;;;;;;5017907;28;20239;-91
2021/09/29 01:49:47;;;;;;;5.30;3.70;;;15.40;73.90;;;;;;5018451;28;20641;-92
2021/09/29 01:52:15;;;;;;;4.30;3.90;;;15.40;73.50;;;;;;5017564;28;20168;-91
2021/09/29 01:54:45;;;;;;;6.65;4.22;;;15.30;73.50;;;;;;5018997;28;20189;-91
2021/09/29 01:57:11;;;;;;;8.55;3.70;;;15.20;73.50;;;;;;5017861;28;20261;-92
2021/09/29 01:59:38;;;;;;;8.05;3.70;;;15.40;73.70;;;;;;5017679;28;20193;-92
2021/09/29 02:02:04;;;;;;;6.57;3.72;;;15.50;73.60;;;;;;5001574;28;20289;-91
2021/09/29 02:04:30;;;;;;;5.25;3.60;;;15.40;73.00;;;;;;5035442;28;20228;-91
2021/09/29 02:06:57;;;;;;;7.55;3.97;;;15.40;73.00;;;;;;5018458;28;20230;-91
2021/09/29 02:09:27;;;;;;;9.57;3.83;;;15.40;72.90;;;;;;5018371;28;20667;-91
2021/09/29 02:11:55;;;;;;;14.20;3.65;;;15.40;72.70;;;;;;5017221;28;20197;-91
2021/09/29 02:14:22;;;;;;;7.53;3.75;;;15.30;72.60;;;;;;5017962;28;20263;-91
2021/09/29 02:16:50;;;;;;;8.43;3.55;;;15.40;72.60;;;;;;5017529;28;20614;-92
2021/09/29 02:19:17;;;;;;;10.88;4.00;;;15.40;72.40;;;;;;5017457;28;20182;-92
2021/09/29 02:21:44;;;;;;;7.03;2.88;;;15.60;72.20;;;;;;5017609;28;20174;-91
2021/09/29 02:24:10;;;;;;;7.15;3.20;;;15.70;71.70;;;;;;5035048;28;20198;-91
2021/09/29 02:26:37;;;;;;;4.75;2.70;;;15.70;71.20;;;;;;5017425;28;20201;-91
2021/09/29 02:29:04;;;;;;;5.32;3.25;;;15.70;71.00;;;;;;5017322;28;20181;-90
2021/09/29 02:31:30;;;;;;;9.15;2.50;;;15.70;70.70;;;;;;5016427;28;20181;-91
2021/09/29 02:33:56;;;;;;;5.65;3.40;;;15.70;70.70;;;;;;5017500;28;20273;-90
2021/09/29 02:36:22;;;;;;;10.43;2.50;;;15.80;71.00;;;;;;5025650;28;20201;-90
2021/09/29 02:38:49;;;;;;;3.73;2.93;;;16.00;70.40;;;;;;4997611;28;20611;-90
2021/09/29 02:41:15;;;;;;;4.63;2.55;;;15.90;69.30;;;;;;4997108;28;20178;-90
2021/09/29 02:43:41;;;;;;;5.43;2.90;;;16.00;69.30;;;;;;4997476;28;20264;-91
2021/09/29 02:46:07;;;;;;;9.32;3.88;;;16.20;69.10;;;;;;4997297;28;20202;-91
2021/09/29 02:48:33;;;;;;;3.23;2.30;;;16.10;68.50;;;;;;4997232;28;20224;-90
2021/09/29 02:50:58;;;;;;;2.07;1.87;;;16.30;68.40;;;;;;5026852;28;20178;-91
2021/09/29 02:53:28;;;;;;;2.27;1.97;;;16.30;68.20;;;;;;5013403;28;20195;-90
2021/09/29 02:56:04;;;;;;;4.68;2.20;;;16.30;68.10;;;;;;5035146;28;20591;-91
2021/09/29 02:58:30;;;;;;;4.32;2.20;;;16.20;67.90;;;;;;5020070;28;20525;-91
2021/09/29 03:00:59;;;;;;;2.95;2.10;;;16.20;68.70;;;;;;5010835;28;20178;-91
2021/09/29 03:03:25;;;;;;;4.45;2.20;;;16.30;69.40;;;;;;5001053;28;20681;-90
2021/09/29 03:05:51;;;;;;;3.60;1.88;;;16.30;69.30;;;;;;5001670;28;20214;-91
2021/09/29 03:08:17;;;;;;;5.23;2.10;;;16.40;69.10;;;;;;5000355;28;20186;-91
2021/09/29 03:10:43;;;;;;;3.70;2.17;;;16.40;69.00;;;;;;5000198;28;20178;-91
2021/09/29 03:13:10;;;;;;;2.42;1.63;;;16.50;68.90;;;;;;4996894;28;20938;-91
2021/09/29 03:15:36;;;;;;;6.35;2.33;;;16.30;68.30;;;;;;4997573;28;20183;-91
2021/09/29 03:18:03;;;;;;;4.87;2.17;;;16.30;68.50;;;;;;4998039;28;20437;-91
2021/09/29 03:20:30;;;;;;;3.55;1.83;;;16.30;68.40;;;;;;4997626;28;20453;-91
2021/09/29 03:22:56;;;;;;;6.40;2.35;;;16.30;68.40;;;;;;4996444;28;20244;-92
2021/09/29 03:25:22;;;;;;;2.50;1.60;;;16.20;68.80;;;;;;4997065;28;20751;-91
2021/09/29 03:27:48;;;;;;;7.97;2.63;;;16.10;69.20;;;;;;4997041;28;20251;-91
2021/09/29 03:30:15;;;;;;;3.90;1.80;;;16.20;69.80;;;;;;4998228;28;20209;-91
2021/09/29 03:32:42;;;;;;;1.83;1.58;;;16.30;69.80;;;;;;4996505;28;20434;-91
2021/09/29 03:35:09;;;;;;;3.55;2.20;;;16.30;69.70;;;;;;4996538;28;20829;-91
2021/09/29 03:37:35;;;;;;;3.72;2.05;;;16.20;70.10;;;;;;5004405;28;20182;-90
2021/09/29 03:40:01;;;;;;;5.93;1.73;;;16.20;70.40;;;;;;5015988;28;20182;-90
2021/09/29 03:42:27;;;;;;;6.40;2.15;;;16.30;70.20;;;;;;5015698;28;20177;-91
2021/09/29 03:48:14;;;;;;;5.35;2.58;;;16.40;69.40;;;;;;5033896;28;20158;-92
2021/09/29 03:50:40;;;;;;;4.60;1.73;;;16.30;69.50;;;;;;5034760;28;20181;-91
2021/09/29 03:53:06;;;;;;;8.00;2.40;;;16.20;69.40;;;;;;5015768;28;20197;-91
2021/09/29 03:55:33;;;;;;;5.63;2.10;;;16.30;69.30;;;;;;5000859;28;20276;-91
2021/09/29 03:57:58;;;;;;;5.00;1.80;;;16.20;69.40;;;;;;5033640;28;20526;-91
2021/09/29 04:00:24;;;;;;;3.73;1.87;;;16.20;69.20;;;;;;5000532;28;20189;-91
2021/09/29 04:02:50;;;;;;;3.10;2.00;;;16.10;69.20;;;;;;4997328;28;20253;-92
2021/09/29 04:05:15;;;;;;;7.03;2.60;;;16.20;69.50;;;;;;4998610;28;20695;-91
2021/09/29 04:07:41;;;;;;;10.00;2.67;;;16.00;69.10;;;;;;5017221;28;20236;-91
2021/09/29 04:10:08;;;;;;;4.17;1.87;;;16.10;69.80;;;;;;5019041;28;20545;-91
2021/09/29 04:12:35;;;;;;;2.88;1.63;;;16.10;69.80;;;;;;5019618;28;20186;-91
2021/09/29 04:15:01;;;;;;;2.33;1.52;;;16.10;69.70;;;;;;5021410;28;20209;-91
2021/09/29 04:17:27;;;;;;;3.45;1.42;;;16.10;70.10;;;;;;5018219;28;20178;-91
2021/09/29 04:19:53;;;;;;;4.70;1.70;;;16.10;70.10;;;;;;5019259;28;20181;-91
2021/09/29 04:22:19;;;;;;;4.07;2.17;;;16.10;70.20;;;;;;5019650;28;20177;-91
2021/09/29 04:24:44;;;;;;;4.20;1.90;;;16.10;70.20;;;;;;5004330;28;20194;-91
2021/09/29 04:27:11;;;;;;;3.47;1.40;;;16.20;70.40;;;;;;4995985;28;20179;-91
2021/09/29 04:29:38;;;;;;;3.25;1.70;;;16.10;70.70;;;;;;4997074;28;20520;-91
2021/09/29 04:32:05;;;;;;;3.17;2.88;;;16.20;71.30;;;;;;4995817;28;20280;-91
2021/09/29 04:34:31;;;;;;;3.28;1.35;;;16.20;71.90;;;;;;4997120;28;20195;-91
2021/09/29 04:36:56;;;;;;;2.03;1.60;;;16.20;72.30;;;;;;4996163;28;20182;-90
2021/09/29 04:39:22;;;;;;;2.13;1.80;;;16.20;72.30;;;;;;4999685;28;20182;-90
2021/09/29 04:41:48;;;;;;;5.33;1.90;;;16.20;72.30;;;;;;5015915;28;20640;-91
2021/09/29 04:44:14;;;;;;;4.63;2.50;;;16.10;72.40;;;;;;5033315;28;20205;-91
2021/09/29 04:46:39;;;;;;;4.10;1.60;;;16.20;72.70;;;;;;5034137;28;20460;-91
2021/09/29 04:49:05;;;;;;;2.60;1.60;;;16.20;73.10;;;;;;5016482;28;20178;-91
2021/09/29 04:51:31;;;;;;;8.93;2.30;;;16.10;74.10;;;;;;5016805;28;20290;-91
2021/09/29 04:53:57;;;;;;;8.13;2.00;;;16.00;75.10;;;;;;5017325;28;20201;-91
2021/09/29 04:56:22;;;;;;;2.10;1.90;;;16.00;75.50;;;;;;5019339;28;20211;-92
2021/09/29 04:58:48;;;;;;;4.93;1.90;;;16.00;75.70;;;;;;5019622;28;20178;-92
2021/09/29 05:01:14;;;;;;;3.87;1.70;;;16.00;75.70;;;;;;5020520;28;20182;-91
2021/09/29 05:03:41;;;;;;;5.63;1.80;;;15.70;75.50;;;;;;5007745;28;20222;-92
2021/09/29 05:06:06;;;;;;;5.13;2.10;;;15.80;75.80;;;;;;5000106;28;20210;-92
2021/09/29 05:08:35;;;;;;;6.80;1.90;;;15.80;75.80;;;;;;5000519;28;20233;-92
2021/09/29 05:11:18;;;;;;;3.80;1.60;;;15.80;76.00;;;;;;5001507;28;20175;-91
2021/09/29 05:13:45;;;;;;;2.30;1.80;;;15.70;76.40;;;;;;4999484;28;20332;-91
2021/09/29 05:16:10;;;;;;;3.08;2.13;;;15.70;77.10;;;;;;5018779;28;20177;-91
2021/09/29 05:18:36;;;;;;;3.90;2.10;;;15.60;78.40;;;;;;5019633;28;20671;-91
2021/09/29 05:21:02;;;;;;;5.90;1.93;;;15.50;79.40;;;;;;5022355;28;20276;-91
2021/09/29 05:23:28;;;;;;;14.07;2.57;;;15.30;80.40;;;;;;5023780;28;20687;-91
2021/09/29 05:25:54;;;;;;;5.10;2.40;;;15.30;81.90;;;;;;5024169;28;20898;-92
2021/09/29 05:28:29;;;;;;;7.13;2.57;;;15.10;83.10;;;;;;5013052;28;21021;-91
2021/09/29 05:30:57;;;;;;;6.18;2.60;;;15.00;84.00;;;;;;5020344;28;20405;-91
2021/09/29 05:33:23;;;;;;;7.93;3.20;;;15.00;84.90;;;;;;5001432;28;20689;-91
2021/09/29 05:35:49;;;;;;;6.55;2.17;;;15.00;85.30;;;;;;5011900;28;20198;-91
2021/09/29 05:38:41;;;;;;;6.87;2.43;;;15.10;85.50;;;;;;5006919;28;20193;-91
2021/09/29 05:41:07;;;;;;;3.38;2.50;;;15.00;85.00;;;;;;5022719;28;20261;-92
2021/09/29 05:43:33;;;;;;;16.93;3.73;;;15.00;85.10;;;;;;5020478;28;20283;-91
2021/09/29 05:45:59;;;;;;;3.87;3.00;;;14.80;85.30;;;;;;5012874;28;20550;-91
2021/09/29 05:48:24;;;;;;;8.45;3.67;;;14.80;85.50;;;;;;5000416;28;20179;-91
2021/09/29 05:50:50;;;;;;;9.30;2.57;;;14.80;85.80;;;;;;5001988;28;20182;-91
2021/09/29 05:53:16;;;;;;;5.27;3.00;;;14.80;86.10;;;;;;5017023;28;20205;-91
2021/09/29 05:55:48;;;;;;;6.30;3.50;;;14.70;87.00;;;;;;5037820;28;20891;-91
2021/09/29 05:58:14;;;;;;;5.35;2.58;;;14.70;86.50;;;;;;5020818;28;20409;-91
2021/09/29 06:00:40;;;;;;;4.53;2.43;;;14.70;86.20;;;;;;5038803;28;20185;-91
2021/09/29 06:03:06;;;;;;;10.20;2.50;;;14.60;86.00;;;;;;5025581;28;20528;-91
2021/09/29 06:05:31;;;;;;;7.50;2.90;;;14.50;86.00;;;;;;5026729;28;20232;-91
2021/09/29 06:07:57;;;;;;;9.10;3.73;;;14.50;86.00;;;;;;5025347;28;20249;-91
2021/09/29 06:10:23;;;;;;;9.67;2.20;;;14.50;85.60;;;;;;5025867;28;20645;-91
2021/09/29 06:12:49;;;;;;;3.95;2.20;;;14.50;86.00;;;;;;5029312;28;20194;-90
2021/09/29 06:15:36;;;;;;;7.85;2.03;;;14.50;85.80;;;;;;5031583;28;20178;-91
2021/09/29 06:18:04;;;;;;;5.53;2.08;;;14.50;85.80;;;;;;5047966;28;20186;-91
2021/09/29 06:20:33;;;;;;;9.02;2.50;;;14.60;85.40;;;;;;5023576;28;20193;-91
2021/09/29 06:23:01;;;;;;;6.38;2.03;;;14.60;85.00;;;;;;5039543;28;20266;-92
2021/09/29 06:25:28;;;;;;;2.10;1.90;;;14.70;84.90;;;;;;5019320;28;20241;-91
2021/09/29 06:27:54;;;;;;;2.00;1.77;;;14.70;84.60;;;;;;5019815;28;20177;-93
2021/09/29 06:30:20;;;;;;;3.33;1.80;;;14.90;83.50;;;;;;5019789;28;20186;-92
2021/09/29 06:32:46;;;;;;;4.82;2.33;;;14.70;83.40;;;;;;5018929;28;20197;-91
2021/09/29 06:35:12;;;;;;;7.60;3.03;;;14.60;83.70;;;;;;5020057;28;20209;-91
2021/09/29 06:37:44;;;;;;;4.40;2.78;;;14.70;84.00;;;;;;5018844;28;20213;-91
2021/09/29 06:40:15;;;;;;;3.55;1.80;;;14.70;84.00;;;;;;5020628;28;20178;-92
2021/09/29 06:42:42;;;;;;;2.65;2.13;;;14.60;84.30;;;;;;5039080;28;20197;-92
2021/09/29 06:45:10;;;;;;;8.18;3.03;;;14.60;84.70;;;;;;5019691;28;20236;-92
2021/09/29 06:47:39;;;;;;;3.85;2.50;;;14.50;85.00;;;;;;5022253;28;20178;-92
2021/09/29 06:50:07;;;;;;;7.10;2.20;;;14.60;84.90;;;;;;5022218;28;20199;-91
2021/09/29 06:52:33;;;;;;;2.55;2.38;;;14.50;84.80;;;;;;5012823;28;20225;-91
2021/09/29 06:54:59;;;;;;;5.70;1.70;;;14.70;84.90;;;;;;5029030;28;20178;-92
2021/09/29 06:57:25;;;;;;;3.70;2.07;;;14.60;84.50;;;;;;5032438;28;20174;-91
2021/09/29 06:59:51;;;;;;;6.17;2.03;;;14.70;83.90;;;;;;5031113;28;20626;-91
2021/09/29 07:02:16;;;;;;;5.37;2.23;;;14.60;83.60;;;;;;5037067;28;20182;-92
2021/09/29 07:04:42;;;;;;;4.40;1.77;;;14.60;83.70;;;;;;5029888;28;20216;-91
2021/09/29 07:07:08;;;;;;;2.33;2.20;;;14.70;83.20;;;;;;5026494;28;20204;-91
2021/09/29 07:09:34;;;;;;;4.37;2.60;;;14.60;83.20;;;;;;5024223;28;20173;-91
2021/09/29 07:12:00;;;;;;;5.80;2.00;;;14.60;83.40;;;;;;5020316;28;20174;-91
2021/09/29 07:14:27;;;;;;;2.75;1.23;;;14.60;83.50;;;;;;5025519;28;20261;-92
2021/09/29 07:16:52;;;;;;;1.98;1.50;;;14.60;83.40;;;;;;5038786;28;20249;-92
2021/09/29 07:19:18;;;;;;;4.13;1.87;;;14.60;83.20;;;;;;5018338;28;20203;-92
2021/09/29 07:21:44;;;;;;;3.45;1.70;;;14.70;83.00;;;;;;5018366;28;20204;-92
2021/09/29 07:24:10;;;;;;;2.10;1.37;;;14.70;82.30;;;;;;5017999;28;20240;-92
2021/09/29 07:26:37;;;;;;;4.73;1.90;;;14.80;81.40;;;;;;5036864;28;20604;-93
2021/09/29 07:29:03;;;;;;;3.00;1.60;;;14.70;81.00;;;;;;5021614;28;20931;-92
2021/09/29 07:31:30;;;;;;;2.78;1.67;;;14.80;80.40;;;;;;5038034;28;20174;-92
2021/09/29 07:33:56;;;;;;;4.93;1.30;;;14.80;80.60;;;;;;5019404;28;20189;-92
2021/09/29 07:36:23;;;;;;;3.25;1.40;;;14.80;79.50;;;;;;5012578;28;20325;-93
2021/09/29 07:38:48;;;;;;;1.20;1.10;;;14.80;78.90;;;;;;5022672;28;20260;-92
2021/09/29 07:41:14;;;;;;;2.33;2.13;;;14.80;79.10;;;;;;5020803;28;20606;-92
2021/09/29 07:43:40;;;;;;;2.30;1.20;;;15.00;78.20;;;;;;5021111;28;20224;-92
2021/09/29 07:46:07;;;;;;;1.10;1.00;;;14.80;78.30;;;;;;5019895;28;20543;-91
2021/09/29 07:48:34;;;;;;;1.50;1.25;;;14.90;78.50;;;;;;5020601;28;20445;-91
2021/09/29 07:51:01;;;;;;;1.33;1.20;;;14.90;78.70;;;;;;5020895;28;20174;-91
2021/09/29 07:53:27;;;;;;;2.40;1.42;;;14.90;79.40;;;;;;5019012;28;20194;-91
2021/09/29 07:55:54;;;;;;;2.55;1.55;;;15.00;79.30;;;;;;5020165;28;20185;-91
2021/09/29 07:58:21;;;;;;;2.05;1.38;;;15.10;78.70;;;;;;5020272;28;20173;-94
2021/09/29 08:00:47;;;;;;;2.10;1.45;;;15.10;78.00;;;;;;5020272;28;20556;-93
2021/09/29 08:03:13;;;;;;;3.27;1.30;;;15.20;77.50;;;;;;5022121;28;20317;-93
2021/09/29 08:05:46;;;;;;;3.43;1.40;;;15.10;78.00;;;;;;5020101;28;20316;-94
2021/09/29 08:08:12;;;;;;;3.30;1.30;;;15.00;78.60;;;;;;5019879;28;20727;-91
2021/09/29 08:10:38;;;;;;;1.93;1.30;;;15.00;78.00;;;;;;5019465;28;20187;-91
2021/09/29 08:13:04;;;;;;;2.17;1.33;;;15.00;78.50;;;;;;5019498;28;20523;-91
2021/09/29 08:15:30;;;;;;;3.42;1.40;;;15.00;79.00;;;;;;5019124;28;20177;-91
2021/09/29 08:17:55;;;;;;;1.77;1.50;;;15.10;79.20;;;;;;5018467;28;20181;-91
2021/09/29 08:20:23;;;;;;;1.77;1.57;;;15.30;78.80;;;;;;5018905;28;20186;-91
2021/09/29 08:22:55;;;;;;;2.88;1.02;;;15.10;79.00;;;;;;5019377;28;20194;-93
2021/09/29 08:31:46;;;;;;;3.53;1.60;;;15.00;78.50;;;;;;5039089;28;20154;-91
2021/09/29 08:39:03;;;;;;;2.10;1.90;;;15.10;78.80;;;;;;5039924;28;20246;-91
2021/09/29 08:44:14;;;;;;;1.80;1.50;;;15.10;79.20;;;;;;5040010;28;20201;-91
2021/09/29 08:49:53;;;;;;;2.05;1.85;;;15.20;79.10;;;;;;5016066;28;20210;-91
2021/09/29 08:55:36;;;;;;;3.63;2.72;;;15.50;78.60;;;;;;5040391;28;20246;-91
2021/09/29 09:17:04;;;;;;;4.30;2.70;;;16.10;76.20;;;;;;5022915;28;20178;-92
2021/09/29 09:19:31;;;;;;;3.85;2.90;;;16.10;76.30;;;;;;5002841;28;20646;-92
2021/09/29 09:22:05;;;;;;;5.55;3.85;;;16.20;76.20;;;;;;5022382;28;20249;-92
2021/09/29 09:24:35;;;;;;;2.42;2.22;;;16.40;75.90;;;;;;5030303;28;20193;-92
2021/09/29 09:27:03;;;;;;;4.80;2.83;;;16.50;75.10;;;;;;5042550;28;20265;-92
2021/09/29 09:29:30;;;;;;;4.38;3.67;;;16.50;74.40;;;;;;5060251;28;20164;-91
2021/09/29 09:32:10;;;;;;;3.72;3.35;;;16.70;73.70;;;;;;5042289;28;20194;-91
2021/09/29 09:34:37;;;;;;;3.70;2.20;;;16.80;73.20;;;;;;5027542;28;20182;-92
2021/09/29 09:37:11;;;;;;;6.47;2.85;;;17.10;72.60;;;;;;5021968;28;20178;-92
2021/09/29 09:39:38;;;;;;;6.30;3.05;;;17.10;71.40;;;;;;5023173;28;20280;-91
2021/09/29 09:42:05;;;;;;;3.78;3.05;;;17.00;70.80;;;;;;5020949;28;20185;-91
2021/09/29 09:44:35;;;;;;;3.85;2.40;;;16.90;71.00;;;;;;5022327;28;20194;-91
2021/09/29 09:47:08;;;;;;;4.72;3.58;;;17.00;71.20;;;;;;5002247;28;20223;-92
2021/09/29 09:49:51;;;;;;;6.18;3.30;;;17.00;71.10;;;;;;5001623;28;20286;-92
2021/09/29 09:52:45;;;;;;;5.30;3.80;;;16.90;70.50;;;;;;5027483;28;20194;-94
2021/09/29 09:55:15;;;;;;;6.47;3.42;;;16.70;70.40;;;;;;5028952;28;20178;-94
2021/09/29 09:57:42;;;;;;;4.85;3.50;;;16.80;70.50;;;;;;5027262;28;20256;-93
2021/09/29 10:00:14;;;;;;;5.35;3.30;;;16.80;70.70;;;;;;5036921;28;20177;-94
2021/09/29 10:02:45;;;;;;;4.70;3.00;;;17.00;70.60;;;;;;5036117;28;20201;-94
2021/09/29 10:05:13;;;;;;;6.28;2.92;;;17.00;69.70;;;;;;5052829;28;20194;-94
2021/09/29 10:07:45;;;;;;;4.38;2.47;;;16.90;68.80;;;;;;5034951;28;20174;-93
2021/09/29 10:10:17;;;;;;;13.85;3.47;;;17.10;68.80;;;;;;5034769;28;20162;-94
2021/09/29 10:27:07;;;;;;;3.75;1.60;;;15.80;71.50;;;;;;5036086;28;20622;-93
2021/09/29 10:29:49;;;;;;;7.15;2.40;;;15.20;73.40;;;;;;5017870;28;20182;-93
2021/09/29 10:32:31;;;;;;;2.88;1.90;;;14.80;75.80;;;;;;5033673;28;20174;-93
2021/09/29 10:43:28;;;;;;;6.53;1.67;;;13.90;81.10;;;;;;5026662;28;20236;-93
2021/09/29 10:46:15;;;;;;;2.28;1.95;;;13.80;81.30;;;;;;5013620;28;20210;-93
2021/09/29 10:48:49;;;;;;;7.32;2.00;;;13.80;82.00;;;;;;5013536;28;20537;-96
2021/09/29 11:03:17;;;;;;;7.20;1.98;;;14.30;82.10;;;;;;5028751;28;20201;-93
2021/09/29 11:11:18;;;;;;;5.88;2.00;;;14.90;81.00;;;;;;5023689;28;20173;-93
2021/09/29 11:30:45;;;;;;;4.43;2.40;;;15.30;79.90;;;;;;5044939;28;20162;-93
2021/09/29 11:33:38;;;;;;;7.97;2.45;;;15.30;80.10;;;;;;5034119;28;20194;-96
2021/09/29 12:09:27;;;;;;;3.00;2.33;;;15.50;72.30;;;;;;5056513;28;20226;-95
2021/09/29 12:19:39;;;;;;;1.98;1.05;;;15.60;70.30;;;;;;5053889;28;20198;-93
2021/09/29 12:22:19;;;;;;;6.82;1.70;;;15.70;69.70;;;;;;5035354;28;20169;-93
2021/09/29 12:27:36;;;;;;;6.30;1.70;;;16.00;68.20;;;;;;5032809;28;20230;-94
2021/09/29 12:30:19;;;;;;;2.17;0.93;;;15.80;66.10;;;;;;4992556;28;20226;-93
2021/09/29 12:35:44;;;;;;;3.17;1.30;;;15.60;65.10;;;;;;5022243;28;20162;-93
2021/09/29 12:38:12;;;;;;;1.92;1.35;;;15.70;64.50;;;;;;5020190;28;20186;-93
2021/09/29 12:40:41;;;;;;;6.05;1.63;;;15.60;64.20;;;;;;5000003;28;20194;-93
2021/09/29 12:43:13;;;;;;;2.22;1.30;;;15.50;64.80;;;;;;4983683;28;20624;-93
2021/09/29 12:45:41;;;;;;;2.50;1.42;;;15.40;64.70;;;;;;4982785;28;20250;-93
2021/09/29 12:48:10;;;;;;;2.28;1.00;;;15.50;65.40;;;;;;4986531;28;20207;-92
2021/09/29 12:56:00;;;;;;;4.22;1.38;;;15.50;66.30;;;;;;5001276;28;20674;-93
2021/09/29 12:58:27;;;;;;;2.00;1.55;;;15.60;66.00;;;;;;5003405;28;20171;-92
2021/09/29 13:00:53;;;;;;;8.38;1.55;;;15.70;65.50;;;;;;4984012;28;20198;-93
2021/09/29 13:03:19;;;;;;;3.63;1.30;;;15.80;64.40;;;;;;4988540;28;20207;-93
2021/09/29 13:05:46;;;;;;;9.33;1.20;;;16.10;64.40;;;;;;5012504;28;20199;-93
2021/09/29 13:08:12;;;;;;;4.55;1.20;;;16.00;61.10;;;;;;5000054;28;20854;-92
2021/09/29 13:10:38;;;;;;;3.43;1.00;;;16.00;59.70;;;;;;4991283;28;20194;-93
2021/09/29 13:13:04;;;;;;;6.43;1.40;;;15.90;59.80;;;;;;5002587;28;20666;-93
2021/09/29 13:15:31;;;;;;;1.63;1.10;;;15.90;58.60;;;;;;5002816;28;20436;-92
2021/09/29 13:17:58;;;;;;;1.15;0.93;;;15.80;58.00;;;;;;4989438;28;20198;-93
2021/09/29 13:20:27;;;;;;;4.03;1.13;;;16.00;59.10;;;;;;4988130;28;20247;-93
2021/09/29 13:23:01;;;;;;;1.60;0.90;;;16.10;59.00;;;;;;4988030;28;20709;-93
2021/09/29 13:39:09;;;;;;;5.55;1.85;;;15.90;61.00;;;;;;5024722;28;20169;-94
2021/09/29 13:41:35;;;;;;;4.25;1.30;;;16.10;60.70;;;;;;5004289;28;20167;-93
2021/09/29 13:44:01;;;;;;;4.32;1.20;;;16.10;60.30;;;;;;4987634;28;20203;-92
2021/09/29 13:46:28;;;;;;;4.17;1.40;;;16.10;60.10;;;;;;4990112;28;20285;-93
2021/09/29 13:48:56;;;;;;;4.47;1.27;;;16.30;60.50;;;;;;5000569;28;20261;-93
2021/09/29 13:51:24;;;;;;;4.90;2.17;;;16.40;61.00;;;;;;4999436;28;20251;-93
2021/09/29 13:53:50;;;;;;;4.45;1.65;;;16.50;63.30;;;;;;4991610;28;20283;-92
2021/09/29 13:56:18;;;;;;;8.00;2.00;;;16.70;63.10;;;;;;4993393;28;20199;-92
2021/09/29 14:02:26;;;;;;;7.70;1.77;;;16.60;62.10;;;;;;4968931;29;20272;-92
2021/09/29 14:29:34;;;;;;;3.50;1.40;;;16.70;58.70;;;;;;5003798;28;20178;-92
2021/09/29 14:32:14;;;;;;;3.03;1.60;;;16.80;59.00;;;;;;4984796;28;20598;-93
2021/09/29 14:34:40;;;;;;;5.80;1.48;;;16.80;59.20;;;;;;4984715;28;20215;-93
2021/09/29 14:37:06;;;;;;;6.80;1.40;;;16.80;59.70;;;;;;4992941;28;20202;-93
2021/09/29 14:39:31;;;;;;;3.10;1.43;;;16.60;59.30;;;;;;4995562;28;20422;-93
2021/09/29 14:41:57;;;;;;;8.00;2.80;;;16.60;59.50;;;;;;5009248;28;20429;-93
2021/09/29 14:44:23;;;;;;;2.20;1.20;;;16.60;60.30;;;;;;4981933;28;20218;-92
2021/09/29 14:46:49;;;;;;;4.80;1.30;;;16.70;61.10;;;;;;4982363;28;20968;-93
2021/09/29 14:49:15;;;;;;;2.67;1.57;;;16.50;60.70;;;;;;4998428;28;20425;-93
2021/09/29 14:51:41;;;;;;;5.97;1.70;;;16.60;60.70;;;;;;5004391;28;20328;-93
2021/09/29 14:54:07;;;;;;;7.10;1.47;;;16.60;61.20;;;;;;5000059;28;20203;-92
2021/09/29 14:56:33;;;;;;;3.90;1.40;;;16.50;61.70;;;;;;4984444;28;20265;-93
2021/09/29 14:59:01;;;;;;;1.47;1.20;;;16.30;60.20;;;;;;4969649;28;20511;-93
2021/09/29 15:01:27;;;;;;;9.38;1.30;;;16.20;60.60;;;;;;5006941;28;20466;-93
2021/09/29 15:03:54;;;;;;;5.93;1.30;;;16.10;60.50;;;;;;5002439;28;20566;-94
2021/09/29 15:06:20;;;;;;;4.45;1.10;;;16.10;60.50;;;;;;4988213;28;20494;-93
2021/09/29 15:08:46;;;;;;;4.50;1.83;;;16.00;60.00;;;;;;4996224;28;20577;-93
2021/09/29 15:11:13;;;;;;;3.10;1.30;;;16.00;59.20;;;;;;4984093;28;20514;-91
2021/09/29 15:13:53;;;;;;;2.97;1.23;;;16.10;59.20;;;;;;5002618;28;20450;-92
2021/09/29 15:16:24;;;;;;;3.55;1.30;;;15.80;57.80;;;;;;4987816;28;20175;-92
2021/09/29 15:19:11;;;;;;;3.25;1.25;;;15.80;59.70;;;;;;4987155;28;20198;-91
2021/09/29 15:55:27;;;;;;;2.70;1.00;;;14.20;68.70;;;;;;5001451;28;20341;-92
2021/09/29 16:16:46;;;;;;;3.00;1.27;;;14.50;68.60;;;;;;5017689;28;20194;-92
2021/09/29 16:37:45;;;;;;;1.80;1.35;;;14.40;72.00;;;;;;4998067;28;20191;-94
2021/09/29 16:40:12;;;;;;;3.85;1.33;;;14.40;72.50;;;;;;5000633;28;20167;-95
2021/09/29 16:42:38;;;;;;;3.95;1.15;;;14.50;72.70;;;;;;4999748;28;20195;-95
2021/09/29 16:45:09;;;;;;;16.05;1.65;;;14.50;72.70;;;;;;4988871;28;20180;-93
2021/09/29 16:47:35;;;;;;;6.10;1.65;;;14.60;72.10;;;;;;4989184;28;20175;-93
2021/09/29 16:50:01;;;;;;;4.53;1.33;;;14.60;71.80;;;;;;4990244;28;20210;-94
2021/09/29 16:55:08;;;;;;;6.93;1.40;;;14.60;71.70;;;;;;5006473;28;20418;-93
2021/09/29 16:57:41;;;;;;;2.92;1.23;;;14.50;71.60;;;;;;4988328;28;20190;-94
2021/09/29 17:00:30;;;;;;;1.45;1.20;;;14.40;71.30;;;;;;4988828;28;20194;-92
2021/09/29 17:02:56;;;;;;;2.05;1.65;;;14.40;71.60;;;;;;4987199;28;20199;-92
2021/09/29 17:05:22;;;;;;;1.33;1.23;;;14.50;73.10;;;;;;4987868;28;20234;-93
2021/09/29 17:07:48;;;;;;;6.90;2.07;;;14.50;74.10;;;;;;4988535;28;20423;-93
2021/09/29 17:10:14;;;;;;;16.63;1.80;;;14.30;73.10;;;;;;4988178;28;20190;-93
2021/09/29 17:12:40;;;;;;;5.43;1.77;;;14.20;72.30;;;;;;4988434;28;20337;-92
2021/09/29 17:15:08;;;;;;;4.53;1.92;;;14.10;71.90;;;;;;4982311;28;20449;-92
2021/09/29 17:17:35;;;;;;;7.13;1.75;;;14.00;71.00;;;;;;4993658;28;20188;-93
2021/09/29 17:20:06;;;;;;;5.35;1.67;;;14.00;71.00;;;;;;5009605;28;20168;-92